Terminal Aerodrome Forecast
Issued by NWS

Current Version | Previous Version | Text Only | Print | Product List | Glossary On
Versions: 1 2 3 4 5 6 7 8 9 10 11 12 13 14 15 16 17 18 19 20 21 22 23 24 25 26 27 28 29 30 31 32 33
000
FTUS41 KCAR 250520
TAFFVE
TAF
KFVE 250520Z 2506/2606 36008KT P6SM SKC
     FM251200 11006KT P6SM BKN200
     FM252000 15008KT P6SM OVC050
     FM260300 15009KT 6SM -RA BR OVC020=

USA.gov is the U.S. government's official web portal to all federal, state and local government web resources and services.